Time;durP1;ratioP1;P1;durP2;ratioP2;P2;SDS_P1;SDS_P2;PMS_P1;PMS_P2;Temp;Humidity;BMP_temperature;BMP_pressure;BME280_temperature;BME280_humidity;BME280_pressure;Samples;Min_cycle;Max_cycle;Signal;HPM_P1;HPM_P2
2023/03/07 00:00:35;;;;;;;8.70;5.75;;;13.60;87.50;;;;;;5108351;28;20047;-60
2023/03/07 00:03:02;;;;;;;8.55;5.43;;;;;;;;;;5112837;28;20051;-64
2023/03/07 00:05:27;;;;;;;8.98;6.05;;;13.60;87.50;;;;;;5112805;28;20089;-62
2023/03/07 00:07:53;;;;;;;9.70;5.93;;;13.40;87.40;;;;;;5112338;28;20501;-60
2023/03/07 00:10:19;;;;;;;8.88;5.80;;;13.60;87.50;;;;;;5112787;28;20072;-60
2023/03/07 00:12:45;;;;;;;8.93;5.82;;;;;;;;;;5095250;28;20119;-61
2023/03/07 00:15:11;;;;;;;8.45;5.60;;;13.60;87.50;;;;;;5104523;28;20039;-60
2023/03/07 00:17:37;;;;;;;8.75;5.85;;;;;;;;;;5111389;28;20039;-64
2023/03/07 00:20:06;;;;;;;8.35;5.13;;;13.50;87.30;;;;;;5111854;28;20370;-61
2023/03/07 00:22:32;;;;;;;8.80;5.55;;;13.60;84.20;;;;;;5114638;28;20047;-60
2023/03/07 00:24:58;;;;;;;9.60;5.57;;;13.80;84.40;;;;;;5114372;28;20046;-60
2023/03/07 00:27:24;;;;;;;8.07;5.05;;;13.50;87.40;;;;;;5114017;28;20118;-60
2023/03/07 00:29:49;;;;;;;8.95;5.13;;;13.50;87.30;;;;;;5107699;28;20122;-62
2023/03/07 00:32:15;;;;;;;8.43;5.18;;;13.60;87.50;;;;;;5110979;28;20491;-59
2023/03/07 00:34:41;;;;;;;8.65;4.97;;;13.60;87.50;;;;;;5112675;28;20052;-60
2023/03/07 00:37:07;;;;;;;8.40;4.82;;;13.70;87.60;;;;;;5115130;28;20065;-60
2023/03/07 00:39:33;;;;;;;7.57;4.63;;;;;;;;;;5115096;28;20051;-60
2023/03/07 00:41:59;;;;;;;7.28;4.40;;;13.50;87.50;;;;;;5114816;28;20457;-62
2023/03/07 00:44:28;;;;;;;7.30;4.47;;;;;;;;;;5114283;28;20082;-60
2023/03/07 00:46:54;;;;;;;7.22;4.20;;;13.70;87.50;;;;;;5111972;28;20054;-60
2023/03/07 00:49:21;;;;;;;7.88;4.45;;;13.60;87.60;;;;;;5114727;28;20118;-60
2023/03/07 00:51:47;;;;;;;7.00;4.20;;;13.50;87.60;;;;;;5112910;28;20083;-59
2023/03/07 00:54:13;;;;;;;7.72;4.20;;;13.90;87.50;;;;;;5113960;28;20071;-59
2023/03/07 00:56:39;;;;;;;6.57;3.80;;;13.50;84.20;;;;;;5105237;28;20040;-63
2023/03/07 00:59:05;;;;;;;7.80;4.28;;;13.50;87.50;;;;;;5091168;28;20388;-60
2023/03/07 01:01:31;;;;;;;7.65;4.25;;;;;;;;;;5113082;28;20040;-60
2023/03/07 01:03:57;;;;;;;6.82;4.00;;;13.50;87.60;;;;;;5113449;28;20035;-60
2023/03/07 01:06:27;;;;;;;6.22;3.60;;;13.50;84.60;;;;;;5113966;28;20039;-61
2023/03/07 01:08:54;;;;;;;6.47;3.65;;;13.60;87.60;;;;;;5114799;28;20489;-62
2023/03/07 01:11:20;;;;;;;7.15;3.40;;;;;;;;;;5114789;28;20479;-61
2023/03/07 01:13:46;;;;;;;6.45;3.58;;;13.60;87.70;;;;;;5114145;28;20088;-61
2023/03/07 01:16:16;;;;;;;6.50;3.50;;;13.60;87.70;;;;;;5113607;28;20501;-62
2023/03/07 01:18:42;;;;;;;7.40;3.28;;;13.60;87.70;;;;;;5113866;28;20059;-60
2023/03/07 01:21:14;;;;;;;6.30;2.83;;;13.60;83.30;;;;;;5110750;28;20103;-63
2023/03/07 01:23:41;;;;;;;6.18;2.90;;;;;;;;;;5113926;28;20047;-62
2023/03/07 01:26:06;;;;;;;5.43;2.63;;;13.90;87.90;;;;;;5114293;28;20040;-59
2023/03/07 01:28:32;;;;;;;5.47;2.50;;;13.60;87.70;;;;;;5094961;28;20115;-59
2023/03/07 01:30:58;;;;;;;5.63;2.10;;;13.70;87.80;;;;;;5113310;28;20434;-62
2023/03/07 01:33:24;;;;;;;6.82;2.65;;;13.80;87.90;;;;;;5114051;28;20040;-60
2023/03/07 01:35:50;;;;;;;8.40;2.60;;;;;;;;;;5112373;28;20485;-59
2023/03/07 01:38:16;;;;;;;4.07;2.00;;;;;;;;;;5105472;28;20116;-62
2023/03/07 01:40:42;;;;;;;4.93;2.00;;;13.50;87.30;;;;;;5114246;28;20400;-65
2023/03/07 01:43:34;;;;;;;4.57;1.88;;;13.60;85.10;;;;;;5112663;28;20047;-60
2023/03/07 01:46:19;;;;;;;4.82;1.98;;;13.60;83.70;;;;;;5109971;28;20055;-64
2023/03/07 01:48:55;;;;;;;6.25;2.08;;;;;;;;;;5113929;28;20144;-60
2023/03/07 01:51:21;;;;;;;4.18;1.75;;;13.70;87.90;;;;;;5093720;28;20050;-62
2023/03/07 01:53:47;;;;;;;3.92;1.85;;;13.80;84.80;;;;;;5086577;28;20127;-66
2023/03/07 01:56:13;;;;;;;5.07;1.77;;;13.50;87.80;;;;;;5110818;28;20047;-66
2023/03/07 01:58:39;;;;;;;5.47;1.80;;;13.70;87.70;;;;;;5113759;28;20148;-61
2023/03/07 02:01:08;;;;;;;3.58;1.45;;;;;;;;;;5113708;28;20388;-59
2023/03/07 02:03:40;;;;;;;4.30;1.50;;;13.60;87.90;;;;;;5094285;28;20054;-60
2023/03/07 02:06:10;;;;;;;3.95;1.40;;;13.60;87.80;;;;;;5095747;28;20054;-66
2023/03/07 02:08:36;;;;;;;3.80;1.60;;;13.60;87.90;;;;;;5093889;28;20055;-66
2023/03/07 02:11:02;;;;;;;3.22;1.20;;;13.60;87.90;;;;;;5072553;28;20035;-60
2023/03/07 02:13:28;;;;;;;3.35;1.15;;;;;;;;;;5113091;28;20058;-61
2023/03/07 02:15:54;;;;;;;4.28;1.20;;;13.10;87.60;;;;;;5112523;28;20088;-61
2023/03/07 02:18:23;;;;;;;2.88;1.23;;;13.60;87.90;;;;;;5077274;28;20051;-59
2023/03/07 02:21:08;;;;;;;3.88;1.35;;;13.50;84.00;;;;;;5112300;28;20100;-60
2023/03/07 02:23:37;;;;;;;4.13;1.30;;;13.70;85.10;;;;;;5095339;28;20043;-59
2023/03/07 02:26:22;;;;;;;2.97;1.10;;;13.60;83.80;;;;;;5095302;28;20048;-60
2023/03/07 02:28:47;;;;;;;6.10;1.13;;;13.70;88.10;;;;;;5094594;28;20439;-60
2023/03/07 02:31:13;;;;;;;4.05;1.27;;;;;;;;;;5094645;28;20069;-60
2023/03/07 02:33:39;;;;;;;4.88;1.17;;;13.50;87.70;;;;;;5113189;28;20043;-61
2023/03/07 02:36:16;;;;;;;4.88;1.63;;;13.50;85.10;;;;;;5111338;28;20096;-60
2023/03/07 02:38:43;;;;;;;3.95;1.00;;;13.60;88.00;;;;;;5109916;28;20062;-66
2023/03/07 02:41:10;;;;;;;3.22;1.13;;;13.80;85.00;;;;;;5095271;28;20554;-60
2023/03/07 02:43:35;;;;;;;4.15;1.20;;;13.60;88.00;;;;;;5093733;28;20051;-59
2023/03/07 02:46:01;;;;;;;4.90;0.95;;;13.50;87.90;;;;;;5101645;28;20050;-59
2023/03/07 02:48:27;;;;;;;4.82;1.38;;;13.80;88.10;;;;;;5111583;28;20050;-59
2023/03/07 02:50:53;;;;;;;4.93;1.52;;;13.60;88.00;;;;;;5112502;28;20047;-59
2023/03/07 02:53:18;;;;;;;4.50;1.05;;;13.40;87.90;;;;;;5094358;28;20096;-60
2023/03/07 02:55:44;;;;;;;2.97;1.02;;;13.50;88.00;;;;;;5112378;28;20055;-60
2023/03/07 02:58:10;;;;;;;5.07;1.23;;;13.20;84.30;;;;;;5110110;28;20078;-60
2023/03/07 03:00:36;;;;;;;6.45;1.30;;;13.50;87.90;;;;;;5111588;28;20051;-59
2023/03/07 03:03:02;;;;;;;4.68;1.30;;;13.60;87.90;;;;;;5111403;28;20532;-60
2023/03/07 03:05:27;;;;;;;6.03;1.58;;;13.70;88.00;;;;;;5112395;28;20046;-60
2023/03/07 03:07:53;;;;;;;4.70;0.90;;;13.50;87.90;;;;;;5110936;28;20047;-60
2023/03/07 03:10:19;;;;;;;5.18;1.27;;;;;;;;;;5111512;28;20047;-61
2023/03/07 03:12:46;;;;;;;4.38;1.10;;;;;;;;;;5098557;28;20055;-61
2023/03/07 03:15:12;;;;;;;4.43;1.20;;;13.40;87.90;;;;;;5094333;28;20649;-60
2023/03/07 03:17:37;;;;;;;6.70;1.23;;;13.50;88.00;;;;;;5111505;28;20126;-60
2023/03/07 03:20:10;;;;;;;5.78;1.85;;;13.60;84.40;;;;;;5109161;28;20144;-62
2023/03/07 03:22:39;;;;;;;5.25;1.27;;;13.30;84.20;;;;;;5112077;28;20064;-61
2023/03/07 03:25:07;;;;;;;5.45;1.48;;;;;;;;;;5113262;28;20046;-59
2023/03/07 03:27:33;;;;;;;6.68;1.35;;;13.50;87.90;;;;;;5112090;28;20067;-59
2023/03/07 03:29:58;;;;;;;5.47;1.10;;;13.50;87.90;;;;;;5093075;28;20070;-60
2023/03/07 03:32:24;;;;;;;2.53;0.90;;;13.60;88.00;;;;;;5111865;28;20499;-61
2023/03/07 03:34:50;;;;;;;6.50;1.40;;;13.40;87.80;;;;;;5110840;28;20463;-60
2023/03/07 03:37:16;;;;;;;5.78;1.20;;;13.50;87.90;;;;;;5107165;28;20036;-59
2023/03/07 03:39:42;;;;;;;4.82;1.20;;;;;;;;;;5111714;28;20509;-60
2023/03/07 03:42:08;;;;;;;4.28;1.15;;;13.40;87.80;;;;;;5111700;28;20044;-60
2023/03/07 03:44:33;;;;;;;3.42;1.05;;;13.30;87.80;;;;;;5112614;28;20039;-60
2023/03/07 03:46:59;;;;;;;4.30;1.48;;;;;;;;;;5112176;28;20044;-63
2023/03/07 03:49:26;;;;;;;3.90;1.00;;;13.40;87.80;;;;;;5112365;28;20043;-59
2023/03/07 03:51:52;;;;;;;5.10;1.10;;;;;;;;;;5110207;28;20481;-61
2023/03/07 03:54:18;;;;;;;5.75;1.20;;;13.50;87.80;;;;;;5107513;28;20035;-65
2023/03/07 03:56:44;;;;;;;3.90;1.10;;;13.40;87.80;;;;;;5116357;28;20055;-65
2023/03/07 03:59:10;;;;;;;4.60;1.45;;;13.40;87.80;;;;;;5116761;28;20040;-65
2023/03/07 04:01:35;;;;;;;5.28;1.20;;;13.30;87.70;;;;;;5116113;28;20043;-65
2023/03/07 04:04:01;;;;;;;3.90;1.17;;;13.50;87.90;;;;;;5116889;28;20078;-66
2023/03/07 04:06:31;;;;;;;2.08;0.73;;;13.40;83.30;;;;;;5116365;28;20130;-65
2023/03/07 04:08:58;;;;;;;2.85;1.10;;;;;;;;;;5097757;28;20044;-64
2023/03/07 04:11:24;;;;;;;5.93;1.25;;;13.60;87.80;;;;;;5116138;28;20035;-64
2023/03/07 04:13:49;;;;;;;5.82;1.23;;;13.40;87.70;;;;;;5116666;28;20473;-66
2023/03/07 04:16:16;;;;;;;6.32;1.40;;;13.60;84.10;;;;;;5116407;28;20071;-64
2023/03/07 04:18:41;;;;;;;5.20;1.10;;;13.40;87.80;;;;;;5116562;28;20132;-64
2023/03/07 04:21:08;;;;;;;4.50;1.15;;;13.40;87.70;;;;;;5116228;28;20044;-65
2023/03/07 04:23:34;;;;;;;6.40;1.23;;;13.40;87.70;;;;;;5097861;28;20104;-60
2023/03/07 04:26:02;;;;;;;5.80;1.20;;;13.40;87.60;;;;;;5112667;28;20047;-61
2023/03/07 04:28:45;;;;;;;4.35;1.20;;;13.60;83.90;;;;;;5115372;28;20071;-60
2023/03/07 04:31:21;;;;;;;3.97;0.85;;;13.60;84.90;;;;;;5114206;28;20043;-59
2023/03/07 04:33:47;;;;;;;6.90;1.30;;;13.10;87.50;;;;;;5115552;28;20047;-60
2023/03/07 04:36:17;;;;;;;6.57;1.40;;;;;;;;;;5096362;28;20392;-60
2023/03/07 04:38:43;;;;;;;3.58;0.95;;;;;;;;;;5115012;28;20127;-60
2023/03/07 04:41:13;;;;;;;4.20;1.00;;;13.30;83.20;;;;;;5115350;28;20040;-60
2023/03/07 04:43:39;;;;;;;3.75;0.90;;;;;;;;;;5106745;28;20047;-60
2023/03/07 04:46:06;;;;;;;6.03;1.00;;;13.30;83.90;;;;;;5113594;28;20512;-61
2023/03/07 04:48:32;;;;;;;5.97;1.25;;;;;;;;;;5114224;28;20485;-60
2023/03/07 04:50:58;;;;;;;5.20;1.52;;;;;;;;;;5113923;28;20520;-60
2023/03/07 04:53:25;;;;;;;4.05;1.10;;;;;;;;;;5115179;28;20040;-60
2023/03/07 04:55:51;;;;;;;4.30;1.25;;;;;;;;;;5114064;28;20059;-60
2023/03/07 04:58:16;;;;;;;5.50;1.10;;;13.60;87.70;;;;;;5114263;28;20055;-60
2023/03/07 05:00:43;;;;;;;5.90;1.25;;;13.40;87.50;;;;;;5113062;28;20167;-60
2023/03/07 05:03:09;;;;;;;7.60;1.10;;;13.30;87.50;;;;;;5112594;28;20396;-59
2023/03/07 05:05:35;;;;;;;5.28;1.20;;;;;;;;;;5115287;28;20405;-60
2023/03/07 05:08:03;;;;;;;4.35;0.93;;;13.30;87.50;;;;;;5112621;28;20039;-62
2023/03/07 05:10:29;;;;;;;6.10;1.40;;;13.40;83.70;;;;;;5115567;28;20392;-60
2023/03/07 05:12:55;;;;;;;6.47;1.23;;;13.00;87.30;;;;;;5114158;28;20048;-59
2023/03/07 05:15:21;;;;;;;5.03;0.95;;;;;;;;;;5113457;28;20039;-62
2023/03/07 05:17:47;;;;;;;2.85;0.82;;;13.40;87.60;;;;;;5104870;28;20036;-60
2023/03/07 05:20:13;;;;;;;3.50;0.82;;;13.40;87.60;;;;;;5112609;28;20093;-60
2023/03/07 05:22:38;;;;;;;6.90;1.40;;;13.30;87.50;;;;;;5114308;28;20122;-60
2023/03/07 05:25:05;;;;;;;4.47;0.88;;;13.20;87.60;;;;;;5115260;28;20044;-59
2023/03/07 05:27:31;;;;;;;5.00;1.17;;;13.30;87.60;;;;;;5113621;28;20035;-60
2023/03/07 05:29:57;;;;;;;3.63;1.20;;;;;;;;;;5112989;28;20104;-61
2023/03/07 05:32:23;;;;;;;4.55;1.52;;;;;;;;;;5114491;28;20047;-62
2023/03/07 05:34:49;;;;;;;4.35;1.30;;;13.40;87.70;;;;;;5111520;28;20058;-60
2023/03/07 05:37:14;;;;;;;4.55;1.25;;;13.40;87.60;;;;;;5114107;28;20114;-59
2023/03/07 05:39:40;;;;;;;3.17;0.82;;;13.40;86.00;;;;;;5111996;28;20115;-60
2023/03/07 05:42:06;;;;;;;5.43;1.25;;;13.70;87.90;;;;;;5113471;28;20103;-61
2023/03/07 05:44:32;;;;;;;5.13;1.20;;;13.40;87.70;;;;;;5114627;28;20091;-61
2023/03/07 05:46:57;;;;;;;4.43;1.40;;;13.50;85.40;;;;;;5113217;28;20127;-60
2023/03/07 05:49:23;;;;;;;4.10;1.48;;;13.40;87.80;;;;;;5113663;28;20065;-60
2023/03/07 05:51:53;;;;;;;5.20;1.33;;;;;;;;;;5108491;28;20043;-59
2023/03/07 05:54:19;;;;;;;3.00;1.10;;;13.70;87.80;;;;;;5090358;28;20050;-60
2023/03/07 05:56:44;;;;;;;4.93;1.30;;;13.60;87.90;;;;;;5099832;28;20405;-66
2023/03/07 05:59:14;;;;;;;5.30;1.42;;;13.50;87.90;;;;;;5114158;28;20044;-59
2023/03/07 06:01:40;;;;;;;5.80;1.33;;;13.40;87.90;;;;;;5114334;28;20048;-67
2023/03/07 06:04:06;;;;;;;5.90;1.23;;;13.40;87.80;;;;;;5113921;28;20447;-64
2023/03/07 06:06:32;;;;;;;5.75;1.27;;;;;;;;;;5113856;28;20067;-68
2023/03/07 06:08:58;;;;;;;3.55;1.08;;;13.30;85.90;;;;;;5100245;28;20134;-68
2023/03/07 06:11:24;;;;;;;3.65;0.75;;;13.50;88.10;;;;;;5114375;28;20122;-66
2023/03/07 06:13:50;;;;;;;4.32;1.08;;;13.70;88.20;;;;;;5113575;28;20434;-66
2023/03/07 06:16:16;;;;;;;4.05;1.00;;;13.70;88.20;;;;;;5112487;28;20092;-66
2023/03/07 06:18:41;;;;;;;5.82;1.13;;;13.60;88.10;;;;;;5108284;28;20048;-65
2023/03/07 06:21:07;;;;;;;3.63;1.13;;;13.70;88.20;;;;;;5107923;28;20071;-65
2023/03/07 06:23:34;;;;;;;6.72;1.38;;;13.80;85.00;;;;;;5111590;28;20048;-65
2023/03/07 06:26:01;;;;;;;4.40;1.13;;;;;;;;;;5103816;28;20397;-60
2023/03/07 06:28:26;;;;;;;4.10;1.20;;;13.50;88.00;;;;;;5092189;28;20044;-60
2023/03/07 06:30:52;;;;;;;5.63;1.38;;;13.60;88.20;;;;;;5102258;28;20059;-60
2023/03/07 06:33:18;;;;;;;7.28;1.70;;;13.80;88.20;;;;;;5100325;28;20066;-59
2023/03/07 06:35:45;;;;;;;4.53;1.30;;;;;;;;;;5092769;28;20072;-65
2023/03/07 06:38:12;;;;;;;5.82;1.42;;;13.60;88.40;;;;;;5093536;28;20071;-65
2023/03/07 06:40:38;;;;;;;4.20;1.30;;;13.70;87.80;;;;;;5104170;28;20511;-65
2023/03/07 06:43:03;;;;;;;5.88;1.48;;;13.70;88.50;;;;;;5104483;28;20031;-65
2023/03/07 06:45:29;;;;;;;4.57;1.10;;;;;;;;;;5111716;28;20930;-59
2023/03/07 06:47:55;;;;;;;6.43;1.20;;;13.90;88.50;;;;;;5110903;28;20083;-59
2023/03/07 06:50:21;;;;;;;5.72;1.20;;;13.60;88.60;;;;;;5110255;28;20144;-59
2023/03/07 06:52:50;;;;;;;5.65;1.13;;;13.60;88.60;;;;;;5110995;28;20043;-60
2023/03/07 06:55:16;;;;;;;4.10;0.98;;;13.70;88.70;;;;;;5111428;28;20071;-59
2023/03/07 06:57:42;;;;;;;5.32;1.52;;;13.80;88.80;;;;;;5111213;28;20044;-59
2023/03/07 07:00:10;;;;;;;7.80;1.40;;;13.80;88.90;;;;;;5101080;28;20054;-59
2023/03/07 07:02:36;;;;;;;3.97;1.17;;;;;;;;;;5103908;28;20043;-65
2023/03/07 07:05:02;;;;;;;5.40;1.23;;;13.60;88.70;;;;;;5112981;28;20100;-59
2023/03/07 07:07:28;;;;;;;6.50;1.17;;;13.80;88.90;;;;;;5112219;28;20040;-59
2023/03/07 07:09:53;;;;;;;7.63;2.10;;;13.90;89.00;;;;;;5113608;28;20073;-59
2023/03/07 07:12:19;;;;;;;4.55;1.27;;;13.80;88.90;;;;;;5110978;28;20070;-59
2023/03/07 07:14:45;;;;;;;5.07;1.30;;;13.70;88.80;;;;;;5113022;28;20366;-58
2023/03/07 07:17:11;;;;;;;6.13;1.30;;;;;;;;;;5107740;28;20039;-61
2023/03/07 07:19:37;;;;;;;5.10;1.40;;;13.90;88.90;;;;;;5113295;28;20035;-60
2023/03/07 07:22:05;;;;;;;4.18;0.77;;;;;;;;;;5109926;28;20057;-65
2023/03/07 07:24:30;;;;;;;5.03;1.10;;;13.80;88.90;;;;;;5113053;28;20111;-65
2023/03/07 07:26:56;;;;;;;3.70;1.20;;;;;;;;;;5111458;28;20568;-64
2023/03/07 07:29:23;;;;;;;4.40;1.38;;;;;;;;;;5113007;28;20090;-65
2023/03/07 07:31:48;;;;;;;5.22;1.00;;;13.50;88.40;;;;;;5114882;28;20044;-60
2023/03/07 07:34:14;;;;;;;4.68;1.20;;;13.90;88.50;;;;;;5115975;28;20043;-65
2023/03/07 07:36:40;;;;;;;7.90;1.20;;;13.80;88.80;;;;;;5114883;28;20036;-65
2023/03/07 07:39:06;;;;;;;4.20;1.17;;;13.80;88.80;;;;;;5117000;28;20043;-59
2023/03/07 07:41:33;;;;;;;4.30;1.00;;;13.90;84.90;;;;;;5115856;28;20050;-61
2023/03/07 07:43:58;;;;;;;3.15;0.90;;;13.90;88.70;;;;;;5115996;28;20035;-60
2023/03/07 07:46:27;;;;;;;5.60;1.27;;;13.90;88.70;;;;;;5117088;28;20044;-59
2023/03/07 07:48:53;;;;;;;4.25;1.13;;;;;;;;;;5115887;28;20055;-60
2023/03/07 07:51:19;;;;;;;4.28;1.00;;;13.90;88.60;;;;;;5103519;28;20162;-59
2023/03/07 07:53:45;;;;;;;3.10;0.90;;;;;;;;;;5100035;28;20122;-63
2023/03/07 07:56:10;;;;;;;3.88;1.10;;;13.90;88.50;;;;;;5116220;28;20047;-59
2023/03/07 07:58:37;;;;;;;5.47;1.40;;;;;;;;;;5116636;28;20516;-59
2023/03/07 08:01:16;;;;;;;3.13;1.20;;;13.90;85.80;;;;;;5114195;28;20042;-59
2023/03/07 08:03:42;;;;;;;4.55;1.30;;;;;;;;;;5113749;28;20087;-60
2023/03/07 08:06:08;;;;;;;3.72;1.42;;;13.80;88.30;;;;;;5114681;28;20101;-59
2023/03/07 08:08:34;;;;;;;5.60;1.20;;;;;;;;;;5100710;28;20048;-61
2023/03/07 08:11:00;;;;;;;5.50;1.55;;;;;;;;;;5112235;28;20036;-65
2023/03/07 08:13:26;;;;;;;3.45;1.05;;;13.90;88.10;;;;;;5114650;28;20388;-64
2023/03/07 08:15:51;;;;;;;3.55;1.02;;;13.50;87.80;;;;;;5115848;28;20119;-63
2023/03/07 08:18:17;;;;;;;5.05;1.40;;;14.10;88.10;;;;;;5115549;28;20446;-65
2023/03/07 08:20:43;;;;;;;4.72;1.08;;;13.90;87.90;;;;;;5115865;28;20130;-63
2023/03/07 08:23:08;;;;;;;4.13;1.10;;;13.90;87.80;;;;;;5115673;28;20040;-63
2023/03/07 08:25:35;;;;;;;5.30;1.20;;;;;;;;;;5101464;28;20091;-63
2023/03/07 08:28:03;;;;;;;4.45;1.48;;;13.90;87.70;;;;;;5112403;28;20040;-66
2023/03/07 08:30:30;;;;;;;3.65;0.98;;;;;;;;;;5116397;28;20778;-65
2023/03/07 08:32:56;;;;;;;4.43;1.10;;;13.90;87.60;;;;;;5115976;28;20096;-65
2023/03/07 08:35:22;;;;;;;5.03;1.20;;;14.00;87.50;;;;;;5113790;28;20040;-65
2023/03/07 08:37:50;;;;;;;4.63;1.00;;;14.10;87.50;;;;;;5111301;28;20039;-65
2023/03/07 08:40:16;;;;;;;6.40;1.42;;;;;;;;;;5097147;28;20050;-62
2023/03/07 08:42:42;;;;;;;6.93;1.00;;;13.60;87.10;;;;;;5105057;28;20043;-65
2023/03/07 08:45:08;;;;;;;5.55;1.00;;;13.90;87.20;;;;;;5115867;28;20046;-66
2023/03/07 08:47:34;;;;;;;4.40;1.25;;;13.90;87.10;;;;;;5109591;28;20126;-65
2023/03/07 08:50:00;;;;;;;4.22;1.30;;;;;;;;;;5114277;28;20167;-65
2023/03/07 08:52:26;;;;;;;4.10;1.17;;;14.00;87.20;;;;;;5115700;28;20479;-65
2023/03/07 08:54:52;;;;;;;3.60;1.00;;;13.90;87.20;;;;;;5115736;28;20043;-67
2023/03/07 08:57:17;;;;;;;6.32;1.20;;;14.20;87.40;;;;;;5115576;28;20040;-67
2023/03/07 08:59:43;;;;;;;4.25;1.10;;;13.90;87.20;;;;;;5096488;28;20050;-67
2023/03/07 09:02:12;;;;;;;4.95;1.08;;;14.10;83.00;;;;;;5115743;28;20053;-67
2023/03/07 09:04:38;;;;;;;3.05;0.90;;;13.60;87.00;;;;;;5115729;28;20039;-66
2023/03/07 09:07:03;;;;;;;3.15;0.80;;;14.00;87.20;;;;;;5115532;28;20483;-65
2023/03/07 09:09:30;;;;;;;4.55;1.20;;;14.00;87.20;;;;;;5113675;28;20047;-65
2023/03/07 09:11:56;;;;;;;4.47;1.42;;;14.20;87.20;;;;;;5113449;28;20082;-65
2023/03/07 09:14:22;;;;;;;2.75;0.93;;;;;;;;;;5111455;28;20059;-68
2023/03/07 09:16:48;;;;;;;3.30;1.10;;;14.00;87.00;;;;;;5089624;28;20458;-68
2023/03/07 09:19:13;;;;;;;4.22;1.02;;;14.00;86.90;;;;;;5115092;28;20118;-67
2023/03/07 09:21:39;;;;;;;4.50;1.38;;;14.10;86.90;;;;;;5115080;28;20047;-65
2023/03/07 09:24:05;;;;;;;7.82;1.00;;;14.10;83.50;;;;;;5113793;28;20067;-65
2023/03/07 09:26:31;;;;;;;3.38;0.90;;;14.40;87.00;;;;;;5112691;28;20050;-66
2023/03/07 09:28:57;;;;;;;3.50;1.13;;;;;;;;;;5108199;28;20043;-62
2023/03/07 09:31:24;;;;;;;3.90;1.00;;;14.10;86.80;;;;;;5094749;28;20039;-63
2023/03/07 09:33:50;;;;;;;2.85;0.77;;;14.20;86.80;;;;;;5080191;28;20040;-65
2023/03/07 09:36:16;;;;;;;4.65;1.27;;;14.20;86.80;;;;;;5113567;28;20118;-65
2023/03/07 09:38:43;;;;;;;2.97;0.93;;;;;;;;;;5114860;28;20055;-65
2023/03/07 09:41:26;;;;;;;3.88;1.05;;;14.30;82.90;;;;;;5115100;28;20039;-64
2023/03/07 09:44:11;;;;;;;3.75;1.20;;;14.50;82.80;;;;;;5114707;28;20046;-62
2023/03/07 09:46:41;;;;;;;4.95;1.40;;;14.30;83.80;;;;;;5095939;28;20055;-65
2023/03/07 09:49:19;;;;;;;3.65;1.27;;;14.20;82.70;;;;;;5094745;28;20428;-64
2023/03/07 09:51:47;;;;;;;4.30;1.10;;;14.10;85.90;;;;;;5105018;28;20419;-65
2023/03/07 09:54:21;;;;;;;3.90;1.20;;;14.50;82.60;;;;;;5109563;28;20051;-65
2023/03/07 09:56:50;;;;;;;3.58;1.00;;;14.40;86.70;;;;;;5091480;28;20055;-65
2023/03/07 09:59:33;;;;;;;2.88;1.17;;;14.30;82.40;;;;;;5093491;28;20044;-64
2023/03/07 10:02:12;;;;;;;2.88;0.80;;;14.60;84.10;;;;;;5107839;28;20048;-63
2023/03/07 10:04:43;;;;;;;4.03;0.98;;;;;;;;;;5110055;28;20048;-61
2023/03/07 10:07:09;;;;;;;3.67;1.10;;;14.60;84.10;;;;;;5096711;28;20041;-67
2023/03/07 10:09:35;;;;;;;3.55;1.30;;;;;;;;;;5091411;28;20496;-65
2023/03/07 10:12:20;;;;;;;4.20;1.23;;;;;;;;;;5081175;28;20413;-66
2023/03/07 10:15:07;;;;;;;6.07;1.48;;;14.30;86.50;;;;;;5093269;28;20404;-63
2023/03/07 10:17:39;;;;;;;2.83;0.70;;;;;;;;;;5109112;28;20036;-65
2023/03/07 10:20:12;;;;;;;5.17;1.13;;;14.30;86.40;;;;;;5093823;28;20075;-65
2023/03/07 10:22:41;;;;;;;3.72;1.15;;;14.40;82.20;;;;;;5108860;28;20126;-65
2023/03/07 10:25:15;;;;;;;6.18;1.42;;;14.30;86.30;;;;;;5085397;28;20048;-65
2023/03/07 10:27:41;;;;;;;6.00;1.27;;;14.50;86.40;;;;;;5092360;28;20048;-66
2023/03/07 10:30:18;;;;;;;4.07;1.20;;;14.30;81.70;;;;;;5091988;28;20459;-63
2023/03/07 10:32:45;;;;;;;3.83;0.95;;;14.50;86.40;;;;;;5091909;28;20481;-62
2023/03/07 10:35:12;;;;;;;4.85;1.23;;;14.40;86.30;;;;;;5093809;28;20052;-64
2023/03/07 10:37:50;;;;;;;3.67;1.27;;;14.40;83.40;;;;;;5093315;28;20044;-60
2023/03/07 10:40:29;;;;;;;4.40;1.15;;;14.50;81.90;;;;;;5087547;28;20054;-66
2023/03/07 10:42:55;;;;;;;5.90;1.40;;;;;;;;;;5093331;28;20055;-66
2023/03/07 10:45:22;;;;;;;4.70;1.52;;;;;;;;;;5091648;28;20105;-66
2023/03/07 10:47:48;;;;;;;3.55;0.90;;;;;;;;;;5091756;28;20135;-63
2023/03/07 10:50:33;;;;;;;5.35;1.48;;;;;;;;;;5076312;28;20040;-66
2023/03/07 10:53:00;;;;;;;3.75;0.98;;;14.40;86.20;;;;;;5092923;28;20044;-65
2023/03/07 10:55:41;;;;;;;3.83;1.15;;;14.50;81.80;;;;;;5095112;28;20052;-67
2023/03/07 10:58:18;;;;;;;4.43;1.00;;;14.10;83.50;;;;;;5088163;28;20109;-66
2023/03/07 11:00:45;;;;;;;4.07;1.05;;;14.30;86.20;;;;;;5072638;28;20048;-66
2023/03/07 11:03:44;;;;;;;4.78;1.33;;;14.30;83.60;;;;;;5072981;28;20048;-66
2023/03/07 11:06:27;;;;;;;4.13;1.30;;;14.40;82.30;;;;;;5092013;28;20091;-63
2023/03/07 11:08:54;;;;;;;4.43;1.30;;;;;;;;;;5092328;28;20105;-66
2023/03/07 11:11:25;;;;;;;4.88;1.55;;;14.20;81.90;;;;;;5093061;28;20366;-67
2023/03/07 11:14:10;;;;;;;4.53;1.20;;;14.20;82.30;;;;;;5090115;28;20059;-62
2023/03/07 11:16:40;;;;;;;3.63;1.17;;;14.50;83.10;;;;;;5100538;28;20098;-64
2023/03/07 11:19:43;;;;;;;6.40;1.63;;;;;;;;;;5089286;28;20036;-65
2023/03/07 11:22:32;;;;;;;4.03;1.43;;;14.40;83.20;;;;;;5068904;28;20048;-65
2023/03/07 11:25:17;;;;;;;4.30;1.17;;;14.60;82.10;;;;;;5069935;28;20334;-66
2023/03/07 11:27:56;;;;;;;4.00;1.25;;;14.20;82.30;;;;;;5070295;28;20075;-66
2023/03/07 11:30:24;;;;;;;4.13;1.02;;;14.10;86.20;;;;;;5073081;28;20086;-68
2023/03/07 11:33:05;;;;;;;4.00;1.33;;;14.40;83.60;;;;;;5032943;28;20562;-64
2023/03/07 11:35:51;;;;;;;3.70;1.20;;;14.60;83.90;;;;;;5049803;28;20080;-65
2023/03/07 11:38:24;;;;;;;6.35;1.15;;;14.40;86.20;;;;;;5059194;28;20141;-66
2023/03/07 11:41:10;;;;;;;4.25;1.00;;;;;;;;;;5052195;28;20090;-65
2023/03/07 11:44:00;;;;;;;6.18;1.70;;;14.60;83.60;;;;;;5069620;28;20044;-63
2023/03/07 11:46:37;;;;;;;3.55;1.10;;;14.80;82.10;;;;;;5053152;28;20398;-61
2023/03/07 11:49:03;;;;;;;4.75;0.90;;;;;;;;;;5052107;28;20570;-66
2023/03/07 11:51:32;;;;;;;3.97;1.30;;;15.00;86.00;;;;;;5070309;28;20137;-63
2023/03/07 11:54:27;;;;;;;4.90;1.40;;;14.90;83.20;;;;;;5070162;28;20048;-67
2023/03/07 11:56:54;;;;;;;3.38;0.95;;;;;;;;;;5099180;28;20056;-64
2023/03/07 11:59:25;;;;;;;5.47;1.35;;;14.70;85.70;;;;;;5111431;28;20180;-66
2023/03/07 12:01:56;;;;;;;5.30;1.38;;;14.70;83.00;;;;;;5094471;28;20094;-67
2023/03/07 12:04:51;;;;;;;5.03;1.30;;;14.90;83.00;;;;;;5106811;28;20035;-61
2023/03/07 12:07:54;;;;;;;4.13;1.00;;;14.90;81.70;;;;;;5077291;28;20044;-60
2023/03/07 12:10:44;;;;;;;5.80;1.65;;;15.00;81.70;;;;;;5111055;28;20130;-63
2023/03/07 12:13:31;;;;;;;4.55;1.10;;;14.90;81.80;;;;;;5094970;28;20126;-62
2023/03/07 12:16:10;;;;;;;3.80;1.15;;;14.80;81.50;;;;;;5113136;28;20085;-65
2023/03/07 12:18:39;;;;;;;4.72;1.17;;;14.70;85.70;;;;;;5116636;28;20055;-65
2023/03/07 12:21:13;;;;;;;3.42;0.98;;;14.60;81.70;;;;;;5115512;28;20397;-65
2023/03/07 12:23:43;;;;;;;2.58;0.73;;;14.70;82.80;;;;;;5100091;28;20451;-62
2023/03/07 12:26:21;;;;;;;3.38;0.95;;;;;;;;;;5093252;28;20044;-59
2023/03/07 12:29:28;;;;;;;4.50;0.95;;;14.90;83.30;;;;;;5077442;28;20127;-63
2023/03/07 12:31:56;;;;;;;3.53;1.00;;;;;;;;;;5095823;28;20040;-62
2023/03/07 12:34:29;;;;;;;3.53;0.90;;;14.70;85.80;;;;;;5096160;28;20089;-63
2023/03/07 12:37:03;;;;;;;4.47;1.25;;;15.00;85.90;;;;;;5091421;28;20056;-65
2023/03/07 12:39:51;;;;;;;5.22;1.42;;;15.00;81.80;;;;;;5076624;28;20071;-67
2023/03/07 12:42:18;;;;;;;5.72;1.27;;;;;;;;;;5112955;28;20096;-65
2023/03/07 12:45:07;;;;;;;3.25;1.27;;;;;;;;;;5114149;28;20031;-61
2023/03/07 12:47:57;;;;;;;3.80;0.98;;;15.40;81.70;;;;;;5107489;28;20134;-62
2023/03/07 12:50:30;;;;;;;3.08;1.05;;;15.20;82.70;;;;;;5095293;28;20098;-63
2023/03/07 12:53:00;;;;;;;5.20;1.15;;;;;;;;;;5112195;28;20044;-61
2023/03/07 12:55:31;;;;;;;10.50;2.42;;;;;;;;;;5094482;28;20089;-63
2023/03/07 12:58:12;;;;;;;8.85;1.45;;;15.50;82.50;;;;;;5094457;28;20054;-61
2023/03/07 13:00:45;;;;;;;9.20;1.52;;;15.60;82.40;;;;;;5078167;28;20093;-63
2023/03/07 13:03:17;;;;;;;6.20;1.10;;;15.50;84.80;;;;;;5089426;28;20077;-63
2023/03/07 13:05:43;;;;;;;4.55;1.30;;;15.60;85.00;;;;;;5097626;28;20054;-66
2023/03/07 13:08:10;;;;;;;6.80;1.20;;;15.80;85.10;;;;;;5096844;28;20481;-66
2023/03/07 13:10:35;;;;;;;5.93;0.90;;;15.60;84.90;;;;;;5080069;28;20047;-64
2023/03/07 13:13:42;;;;;;;5.22;1.33;;;15.40;82.10;;;;;;5111963;28;20040;-63
2023/03/07 13:16:10;;;;;;;5.18;1.10;;;15.60;82.00;;;;;;5093538;28;20044;-65
2023/03/07 13:18:35;;;;;;;4.40;1.10;;;15.20;85.00;;;;;;5093288;28;20051;-65
2023/03/07 13:21:12;;;;;;;4.43;1.13;;;15.40;81.40;;;;;;5094581;28;20051;-65